VTA weather

Newark Heath Airport
Newark, Ohio, United States

Public forecast

Using degrees Fahrenheit for public forecast. Weather courtesy of forecast.io.

METAR (pilot weather report)

Retrieved 2019/05/23 12:38 UTC (3 minutes ago):

KVTA 231238Z AUTO 33009KT 10SM FEW032 BKN065 BKN095 22/19 A3011 RMK AO2 LTG DSNT N-E RAE05 TSE25 PRESRR P0000 T02170189

TAF (pilot weather forecast)

Closest forecast is John Glenn Columbus International Airport, 19.8 nm (36.7 km) W. Retrieved 2019/05/23 12:33 UTC (8 minutes ago):

TAF KCMH 231130Z 2312/2412 20008KT P6SM -SHRA BKN050 TEMPO 2312/2313 27020G30KT 4SM -TSRA BKN035CB FM231400 22014G22KT P6SM SCT100 FM231800 25016G24KT P6SM SCT050 FM240100 29011KT P6SM FEW250 FM240400 34004KT P6SM FEW250